createdAt,value
2017-12-05T00:02:15.041Z,91.70
2017-12-05T00:04:42.575Z,91.70
2017-12-05T00:07:10.112Z,91.60
2017-12-05T00:09:37.691Z,91.60
2017-12-05T00:12:06.090Z,91.60
2017-12-05T00:14:33.623Z,91.60
2017-12-05T00:17:01.199Z,91.60
2017-12-05T00:19:28.736Z,91.60
2017-12-05T00:21:56.268Z,91.60
2017-12-05T00:24:24.134Z,91.60
2017-12-05T00:26:51.876Z,91.70
2017-12-05T00:29:19.553Z,91.90
2017-12-05T00:31:47.147Z,92.10
2017-12-05T00:34:16.468Z,91.80
2017-12-05T00:36:43.995Z,91.80
2017-12-05T00:39:12.325Z,91.90
2017-12-05T00:41:40.671Z,91.80
2017-12-05T00:44:08.208Z,91.80
2017-12-05T00:46:35.775Z,91.70
2017-12-05T00:49:03.304Z,91.70
2017-12-05T00:51:30.979Z,91.80
2017-12-05T00:53:58.563Z,91.60
2017-12-05T00:56:26.115Z,91.70
2017-12-05T00:58:53.643Z,91.60
2017-12-05T01:01:21.203Z,91.60
2017-12-05T01:03:49.048Z,91.60
2017-12-05T01:06:16.576Z,91.60
2017-12-05T01:08:44.143Z,91.60
2017-12-05T01:11:11.684Z,91.60
2017-12-05T01:13:39.984Z,91.60
2017-12-05T01:16:08.332Z,91.40
2017-12-05T01:18:35.872Z,91.40
2017-12-05T01:21:03.407Z,91.50
2017-12-05T01:23:30.984Z,91.50
2017-12-05T01:25:58.528Z,91.60
2017-12-05T01:28:26.074Z,91.50
2017-12-05T01:30:53.635Z,91.40
2017-12-05T01:33:21.176Z,91.40
2017-12-05T01:35:48.756Z,91.50
2017-12-05T01:38:17.307Z,91.60
2017-12-05T01:40:44.839Z,91.60
2017-12-05T01:43:12.398Z,91.40
2017-12-05T01:45:39.991Z,91.40
2017-12-05T01:48:08.286Z,91.40
2017-12-05T01:50:35.816Z,91.40
2017-12-05T01:53:03.388Z,91.60
2017-12-05T01:55:31.721Z,91.40
2017-12-05T01:57:59.257Z,91.40
2017-12-05T02:00:26.860Z,91.30
2017-12-05T02:02:54.420Z,91.20
2017-12-05T02:05:21.966Z,91.20
2017-12-05T02:07:49.552Z,91.10
2017-12-05T02:10:17.848Z,91.30
2017-12-05T02:12:46.145Z,91.20
2017-12-05T02:15:15.550Z,91.20
2017-12-05T02:17:43.095Z,91.20
2017-12-05T02:20:10.618Z,91.30
2017-12-05T02:22:38.380Z,91.20
2017-12-05T02:25:06.707Z,91.50
2017-12-05T02:27:34.256Z,91.20
2017-12-05T02:30:01.845Z,91.30
2017-12-05T02:32:29.383Z,91.30
2017-12-05T02:34:56.916Z,91.40
2017-12-05T02:37:24.471Z,91.30
2017-12-05T02:39:52.003Z,91.40
2017-12-05T02:42:19.536Z,91.20
2017-12-05T02:44:47.140Z,91.20
2017-12-05T02:47:16.360Z,91.30
2017-12-05T02:49:43.906Z,91.30
2017-12-05T02:52:11.476Z,91.30
2017-12-05T02:54:39.012Z,91.30
2017-12-05T02:57:07.337Z,91.50
2017-12-05T02:59:34.899Z,91.20
2017-12-05T03:02:02.448Z,91.20
2017-12-05T03:04:29.975Z,91.10
2017-12-05T03:06:57.887Z,91.10
2017-12-05T03:09:25.430Z,91.10
2017-12-05T03:11:52.971Z,91.10
2017-12-05T03:14:20.529Z,91.00
2017-12-05T03:16:48.080Z,91.10
2017-12-05T03:19:17.291Z,91.00
2017-12-05T03:21:44.855Z,91.30
2017-12-05T03:24:12.412Z,91.10
2017-12-05T03:26:39.952Z,91.00
2017-12-05T03:29:07.552Z,91.10
2017-12-05T03:31:35.173Z,91.00
2017-12-05T03:34:02.836Z,91.10
2017-12-05T03:36:30.399Z,91.00
2017-12-05T03:38:57.942Z,91.10
2017-12-05T03:41:26.248Z,91.00
2017-12-05T03:43:53.827Z,91.00
2017-12-05T03:46:21.364Z,90.80
2017-12-05T03:48:48.899Z,90.80
2017-12-05T03:51:17.258Z,90.80
2017-12-05T03:53:44.795Z,90.80
2017-12-05T03:56:12.330Z,90.60
2017-12-05T03:58:39.905Z,90.50
2017-12-05T04:01:07.451Z,90.30
2017-12-05T04:03:34.988Z,90.30
2017-12-05T04:06:02.585Z,90.40
2017-12-05T04:08:30.364Z,90.60
2017-12-05T04:10:57.913Z,90.60
2017-12-05T04:13:25.503Z,90.30
2017-12-05T04:15:53.799Z,90.20
2017-12-05T04:18:21.352Z,90.20
2017-12-05T04:20:48.909Z,90.10
2017-12-05T04:23:16.460Z,90.10
2017-12-05T04:25:44.758Z,90.10
2017-12-05T04:28:12.335Z,90.10
2017-12-05T04:30:39.872Z,90.00
2017-12-05T04:33:07.419Z,90.00
2017-12-05T04:35:35.011Z,90.00
2017-12-05T04:38:02.548Z,89.90
2017-12-05T04:40:30.096Z,90.00
2017-12-05T04:42:58.480Z,89.80
2017-12-05T04:45:26.029Z,89.90
2017-12-05T04:47:53.588Z,89.90
2017-12-05T04:50:21.927Z,89.60
2017-12-05T04:52:49.474Z,89.60
2017-12-05T04:55:17.040Z,89.70
2017-12-05T04:57:44.623Z,90.00
2017-12-05T05:00:12.160Z,89.90
2017-12-05T05:02:39.789Z,90.00
2017-12-05T05:05:07.360Z,90.00
2017-12-05T05:07:34.923Z,90.00
2017-12-05T05:10:02.987Z,90.00
2017-12-05T05:12:30.548Z,90.00
2017-12-05T05:14:58.079Z,90.00
2017-12-05T05:17:25.607Z,90.10
2017-12-05T05:19:53.192Z,90.10
2017-12-05T05:22:20.750Z,90.10
2017-12-05T05:24:48.295Z,90.30
2017-12-05T05:27:17.735Z,90.30
2017-12-05T05:29:45.272Z,90.20
2017-12-05T05:32:13.748Z,90.40
2017-12-05T05:34:41.311Z,90.30
2017-12-05T05:37:08.847Z,90.20
2017-12-05T05:39:36.416Z,90.20
2017-12-05T05:42:04.866Z,90.20
2017-12-05T05:44:32.415Z,90.20
2017-12-05T05:46:59.950Z,90.20
2017-12-05T05:49:27.512Z,90.00
2017-12-05T05:51:55.076Z,90.00
2017-12-05T05:54:22.627Z,89.90
2017-12-05T05:56:50.199Z,89.90
2017-12-05T05:59:17.740Z,89.60
2017-12-05T06:01:45.267Z,89.00
2017-12-05T06:04:14.549Z,89.10
2017-12-05T06:06:42.883Z,89.00
2017-12-05T06:09:10.421Z,89.00
2017-12-05T06:11:38.000Z,89.10
2017-12-05T06:14:05.551Z,89.20
2017-12-05T06:16:33.114Z,89.00
2017-12-05T06:19:00.673Z,89.00
2017-12-05T06:21:28.256Z,88.80
2017-12-05T06:23:55.807Z,89.20
2017-12-05T06:26:23.425Z,88.90
2017-12-05T06:28:50.963Z,88.80
2017-12-05T06:31:19.304Z,89.00
2017-12-05T06:33:46.879Z,89.00
2017-12-05T06:36:25.343Z,88.80
2017-12-05T06:46:30.556Z,89.30
2017-12-05T06:48:58.097Z,89.30
2017-12-05T06:51:25.675Z,88.80
2017-12-05T06:53:53.495Z,89.10
2017-12-05T06:56:21.802Z,88.20
2017-12-05T06:58:49.359Z,88.20
2017-12-05T07:01:16.887Z,88.20
2017-12-05T07:03:45.184Z,87.80
2017-12-05T07:06:14.464Z,87.80
2017-12-05T07:08:42.004Z,87.80
2017-12-05T07:11:09.536Z,87.90
2017-12-05T07:13:37.683Z,87.80
2017-12-05T07:16:05.215Z,87.90
2017-12-05T07:18:33.508Z,87.60
2017-12-05T07:21:01.260Z,87.60
2017-12-05T07:23:28.804Z,87.20
2017-12-05T07:25:57.100Z,87.10
2017-12-05T07:28:24.685Z,87.10
2017-12-05T07:30:52.239Z,87.30
2017-12-05T07:33:19.793Z,87.30
2017-12-05T07:35:47.429Z,87.50
2017-12-05T07:38:16.503Z,87.40
2017-12-05T07:40:44.072Z,87.00
2017-12-05T07:43:12.406Z,85.80
2017-12-05T07:45:39.943Z,85.80
2017-12-05T07:48:07.484Z,86.50
2017-12-05T07:50:35.070Z,86.20
2017-12-05T07:53:02.600Z,86.00
2017-12-05T07:55:30.196Z,86.30
2017-12-05T07:57:57.757Z,85.90
2017-12-05T08:00:25.283Z,86.20
2017-12-05T08:02:52.825Z,86.00
2017-12-05T08:05:21.231Z,85.80
2017-12-05T08:07:48.763Z,85.80
2017-12-05T08:10:17.270Z,85.60
2017-12-05T08:12:44.855Z,85.60
2017-12-05T08:15:12.664Z,84.60
2017-12-05T08:17:40.965Z,84.30
2017-12-05T08:20:08.533Z,84.30
2017-12-05T08:22:36.068Z,84.70
2017-12-05T08:25:03.636Z,84.60
2017-12-05T08:27:31.256Z,84.20
2017-12-05T08:29:58.797Z,84.30
2017-12-05T08:32:26.343Z,84.20
2017-12-05T08:34:53.949Z,84.30
2017-12-05T08:37:21.488Z,83.80
2017-12-05T08:39:49.439Z,83.10
2017-12-05T08:42:17.047Z,82.20
2017-12-05T08:44:44.592Z,81.00
2017-12-05T08:47:13.931Z,81.10
2017-12-05T08:49:41.508Z,81.10
2017-12-05T08:52:09.552Z,80.90
2017-12-05T08:54:37.091Z,80.10
2017-12-05T08:57:04.678Z,79.40
2017-12-05T08:59:32.215Z,79.10
2017-12-05T09:01:59.759Z,78.00
2017-12-05T09:04:28.088Z,79.10
2017-12-05T09:06:55.629Z,79.00
2017-12-05T09:09:23.165Z,79.60
2017-12-05T09:11:50.779Z,79.50
2017-12-05T09:14:19.155Z,78.90
2017-12-05T09:16:47.295Z,78.80
2017-12-05T09:19:17.576Z,79.00
2017-12-05T09:21:45.887Z,78.10
2017-12-05T09:24:14.583Z,77.70
2017-12-05T10:29:53.355Z,76.00
2017-12-05T10:32:20.890Z,76.30
2017-12-05T10:34:48.428Z,76.30
2017-12-05T10:37:16.447Z,75.50
2017-12-05T10:39:43.995Z,76.10
2017-12-05T10:42:11.971Z,76.30
2017-12-05T10:44:39.543Z,76.30
2017-12-05T10:47:07.866Z,75.40
2017-12-05T10:49:35.415Z,75.40
2017-12-05T10:52:02.990Z,74.90
2017-12-05T10:54:30.533Z,74.10
2017-12-05T10:56:58.174Z,74.00
2017-12-05T10:59:25.737Z,74.90
2017-12-05T11:01:53.276Z,75.00
2017-12-05T11:04:20.816Z,73.80
2017-12-05T11:06:48.549Z,74.00
2017-12-05T11:09:17.204Z,72.80
2017-12-05T11:11:44.735Z,72.70
2017-12-05T11:14:14.309Z,71.60
2017-12-05T11:16:41.869Z,71.60
2017-12-05T11:19:09.404Z,72.00
2017-12-05T11:21:36.965Z,72.00
2017-12-05T11:24:04.706Z,72.50
2017-12-05T11:26:32.237Z,70.40
2017-12-05T11:28:59.804Z,71.30
2017-12-05T11:31:28.103Z,70.50
2017-12-05T11:33:55.653Z,70.50
2017-12-05T11:36:23.255Z,70.30
2017-12-05T11:38:50.788Z,69.70
2017-12-05T11:41:18.350Z,69.50
2017-12-05T11:43:45.915Z,70.60
2017-12-05T11:46:25.860Z,70.20
2017-12-05T11:52:20.277Z,70.30
2017-12-05T11:54:47.809Z,69.30
2017-12-05T11:57:16.447Z,69.70
2017-12-05T11:59:44.028Z,68.70
2017-12-05T12:02:12.476Z,70.10
2017-12-05T12:04:40.015Z,70.10
2017-12-05T12:07:07.586Z,69.30
2017-12-05T12:09:35.887Z,70.20
2017-12-05T12:12:03.424Z,70.20
2017-12-05T12:14:31.782Z,70.10
2017-12-05T12:16:59.312Z,70.10
2017-12-05T12:19:27.615Z,68.10
2017-12-05T12:21:55.208Z,68.00
2017-12-05T12:24:22.782Z,68.30
2017-12-05T12:26:50.317Z,69.40
2017-12-05T12:29:18.121Z,70.10
2017-12-05T12:31:45.816Z,68.80
2017-12-05T12:34:24.865Z,70.20
2017-12-05T12:39:38.643Z,70.20
2017-12-05T12:42:06.196Z,70.20
2017-12-05T12:44:33.744Z,69.70
2017-12-05T12:47:01.323Z,68.80
2017-12-05T12:49:28.856Z,69.30
2017-12-05T12:51:56.388Z,70.30
2017-12-05T12:54:23.979Z,69.90
2017-12-05T12:56:51.516Z,69.50
2017-12-05T12:59:19.146Z,69.80
2017-12-05T13:01:46.731Z,70.70
2017-12-05T13:04:26.099Z,70.90
2017-12-05T13:15:33.705Z,70.90
2017-12-05T13:18:01.268Z,70.00
2017-12-05T13:20:28.814Z,69.80
2017-12-05T13:22:56.387Z,69.50
2017-12-05T13:25:24.091Z,71.00
2017-12-05T13:27:51.627Z,69.60
2017-12-05T13:30:19.192Z,69.90
2017-12-05T13:32:47.019Z,70.30
2017-12-05T13:35:16.467Z,69.80
2017-12-05T13:37:44.091Z,70.40
2017-12-05T13:40:11.631Z,69.50
2017-12-05T13:42:39.944Z,69.90
2017-12-05T13:45:07.516Z,70.50
2017-12-05T13:47:35.049Z,69.20
2017-12-05T13:50:02.602Z,69.90
2017-12-05T13:52:30.189Z,71.10
2017-12-05T13:54:58.764Z,71.00
2017-12-05T13:57:26.303Z,69.90
2017-12-05T13:59:53.934Z,71.10
2017-12-05T14:02:22.528Z,70.50
2017-12-05T14:04:50.066Z,70.40
2017-12-05T14:07:17.838Z,70.90
2017-12-05T14:09:45.401Z,70.00
2017-12-05T14:12:14.644Z,69.20
2017-12-05T14:14:43.926Z,69.20
2017-12-05T14:17:11.488Z,70.00
2017-12-05T14:19:39.064Z,69.80
2017-12-05T14:22:06.659Z,69.90
2017-12-05T14:24:34.199Z,70.60
2017-12-05T14:27:01.741Z,70.00
2017-12-05T14:29:29.304Z,69.80
2017-12-05T14:31:56.848Z,69.50
2017-12-05T14:34:24.647Z,70.50
2017-12-05T14:36:52.175Z,70.20
2017-12-05T14:39:19.730Z,70.40
2017-12-05T14:41:47.274Z,71.50
2017-12-05T14:44:16.696Z,70.40
2017-12-05T14:46:44.245Z,70.40
2017-12-05T14:49:11.834Z,70.90
2017-12-05T14:51:40.174Z,70.50
2017-12-05T14:54:08.696Z,69.90
2017-12-05T14:56:36.355Z,70.80
2017-12-05T14:59:03.891Z,71.20
2017-12-05T15:01:31.424Z,70.80
2017-12-05T15:03:59.733Z,71.40
2017-12-05T15:06:27.343Z,71.20
2017-12-05T15:08:54.912Z,71.20
2017-12-05T15:11:23.233Z,71.40
2017-12-05T15:13:50.796Z,71.40
2017-12-05T15:16:18.348Z,71.60
2017-12-05T15:18:46.213Z,72.50
2017-12-05T15:21:19.625Z,72.30
2017-12-05T15:31:52.231Z,72.40
2017-12-05T15:34:19.764Z,74.00
2017-12-05T15:36:47.716Z,74.40
2017-12-05T15:39:15.721Z,74.20
2017-12-05T15:41:43.259Z,74.60
2017-12-05T15:44:10.807Z,74.90
2017-12-05T15:46:38.384Z,75.20
2017-12-05T15:49:05.942Z,74.60
2017-12-05T15:51:33.496Z,74.70
2017-12-05T15:54:01.092Z,74.80
2017-12-05T15:56:28.648Z,74.70
2017-12-05T15:58:56.189Z,75.20
2017-12-05T16:01:23.752Z,74.80
2017-12-05T16:03:51.288Z,75.20
2017-12-05T16:06:19.910Z,75.20
2017-12-05T16:08:47.510Z,75.40
2017-12-05T16:11:16.516Z,75.80
2017-12-05T16:13:44.820Z,75.80
2017-12-05T16:16:13.007Z,75.80
2017-12-05T16:18:40.544Z,75.60
2017-12-05T16:21:08.095Z,75.30
2017-12-05T16:23:35.676Z,74.90
2017-12-05T16:26:03.220Z,75.30
2017-12-05T16:28:30.837Z,75.50
2017-12-05T16:30:59.282Z,75.00
2017-12-05T16:33:26.925Z,75.00
2017-12-05T16:35:54.496Z,75.00
2017-12-05T16:38:25.340Z,75.50
2017-12-05T16:40:52.884Z,75.30
2017-12-05T16:43:20.441Z,75.70
2017-12-05T16:45:48.022Z,75.20
2017-12-05T16:48:16.423Z,75.30
2017-12-05T16:50:44.765Z,75.30
2017-12-05T16:53:12.369Z,75.20
2017-12-05T16:55:40.685Z,74.80
2017-12-05T16:58:08.271Z,74.70
2017-12-05T17:00:35.895Z,75.00
2017-12-05T17:03:03.569Z,75.20
2017-12-05T17:05:31.114Z,75.10
2017-12-05T17:07:58.704Z,75.60
2017-12-05T17:10:26.243Z,75.70
2017-12-05T17:12:53.779Z,75.80
2017-12-05T17:15:22.131Z,76.10
2017-12-05T17:17:49.691Z,76.10
2017-12-05T17:20:18.010Z,76.10
2017-12-05T17:22:45.606Z,76.10
2017-12-05T17:25:25.327Z,76.40
2017-12-05T17:30:27.156Z,76.00
2017-12-05T17:32:55.776Z,76.70
2017-12-05T17:35:23.388Z,76.70
2017-12-05T17:37:50.988Z,76.70
2017-12-05T17:40:18.549Z,76.50
2017-12-05T17:42:46.096Z,76.60
2017-12-05T17:45:24.636Z,76.60
2017-12-05T17:50:43.063Z,76.40
2017-12-05T17:53:11.364Z,76.80
2017-12-05T17:55:38.912Z,76.80
2017-12-05T17:58:06.539Z,76.90
2017-12-05T18:00:34.090Z,77.00
2017-12-05T18:03:01.631Z,77.60
2017-12-05T18:05:29.188Z,78.30
2017-12-05T18:07:56.750Z,77.50
2017-12-05T18:10:24.283Z,77.90
2017-12-05T18:12:51.849Z,77.90
2017-12-05T18:15:19.400Z,77.50
2017-12-05T18:17:46.933Z,77.60
2017-12-05T18:20:16.426Z,78.00
2017-12-05T18:22:44.756Z,78.10
2017-12-05T18:25:12.325Z,78.10
2017-12-05T18:27:39.903Z,77.90
2017-12-05T18:30:07.446Z,77.50
2017-12-05T18:32:34.992Z,77.60
2017-12-05T18:35:02.580Z,77.80
2017-12-05T18:37:30.229Z,77.90
2017-12-05T18:39:57.785Z,78.00
2017-12-05T18:42:25.774Z,77.60
2017-12-05T18:44:54.091Z,77.50
2017-12-05T18:47:21.654Z,77.90
2017-12-05T18:49:49.225Z,77.30
2017-12-05T18:52:16.760Z,77.90
2017-12-05T18:54:44.309Z,77.70
2017-12-05T18:57:11.902Z,77.50
2017-12-05T18:59:39.436Z,77.80
2017-12-05T19:02:07.735Z,77.80
2017-12-05T19:04:35.377Z,77.90
2017-12-05T19:07:02.979Z,77.70
2017-12-05T19:09:30.525Z,78.00
2017-12-05T19:15:04.743Z,78.30
2017-12-05T19:17:32.278Z,78.50
2017-12-05T19:19:59.808Z,78.60
2017-12-05T19:22:27.364Z,78.20
2017-12-05T19:24:54.931Z,78.20
2017-12-05T19:27:22.467Z,77.70
2017-12-05T19:29:50.047Z,77.60
2017-12-05T19:32:17.578Z,77.60
2017-12-05T19:34:45.153Z,77.70
2017-12-05T19:37:13.656Z,78.00
2017-12-05T19:39:41.223Z,78.50
2017-12-05T19:42:09.560Z,78.30
2017-12-05T19:44:37.289Z,78.30
2017-12-05T19:47:04.869Z,78.50
2017-12-05T19:49:32.512Z,78.00
2017-12-05T19:52:00.309Z,77.90
2017-12-05T19:54:27.899Z,78.10
2017-12-05T19:56:56.211Z,78.30
2017-12-05T19:59:23.811Z,78.30
2017-12-05T20:01:51.382Z,78.50
2017-12-05T20:04:19.211Z,78.40
2017-12-05T20:06:46.932Z,78.80
2017-12-05T20:09:15.536Z,78.30
2017-12-05T20:11:43.209Z,78.20
2017-12-05T20:14:10.869Z,78.00
2017-12-05T20:16:38.751Z,78.60
2017-12-05T20:19:06.513Z,79.00
2017-12-05T20:21:34.914Z,79.30
2017-12-05T20:24:02.475Z,79.30
2017-12-05T20:26:30.076Z,79.20
2017-12-05T20:28:57.636Z,79.10
2017-12-05T20:31:25.192Z,78.50
2017-12-05T20:33:52.959Z,77.80
2017-12-05T20:36:20.578Z,77.70
2017-12-05T20:38:48.204Z,77.60
2017-12-05T20:41:16.465Z,78.00
2017-12-05T20:43:44.092Z,78.50
2017-12-05T20:46:11.861Z,78.20
2017-12-05T20:48:40.485Z,78.30
2017-12-05T20:51:08.092Z,78.20
2017-12-05T20:53:35.639Z,78.60
2017-12-05T20:56:03.168Z,79.20
2017-12-05T20:58:30.748Z,79.00
2017-12-05T21:00:58.287Z,79.20
2017-12-05T21:03:25.825Z,79.80
2017-12-05T21:05:53.407Z,79.20
2017-12-05T21:08:20.952Z,78.90
2017-12-05T21:10:48.490Z,78.80
2017-12-05T21:13:17.359Z,79.00
2017-12-05T21:15:44.913Z,79.00
2017-12-05T21:18:12.735Z,79.20
2017-12-05T21:20:40.303Z,79.40
2017-12-05T21:23:07.845Z,79.40
2017-12-05T21:25:35.379Z,79.40
2017-12-05T21:28:03.857Z,80.00
2017-12-05T21:30:31.406Z,80.00
2017-12-05T21:32:59.711Z,80.20
2017-12-05T21:35:27.393Z,80.20
2017-12-05T21:37:55.000Z,80.30
2017-12-05T21:40:23.304Z,79.70
2017-12-05T21:42:50.861Z,79.70
2017-12-05T21:45:18.412Z,80.00
2017-12-05T21:47:46.724Z,80.20
2017-12-05T21:50:24.568Z,80.20
2017-12-05T21:55:34.212Z,80.20
2017-12-05T21:58:01.779Z,80.40
2017-12-05T22:00:30.092Z,80.70
2017-12-05T22:02:57.654Z,80.70
2017-12-05T22:05:25.199Z,80.50
2017-12-05T22:07:53.512Z,80.50
2017-12-05T22:10:21.510Z,80.50
2017-12-05T22:12:49.043Z,80.20
2017-12-05T22:15:16.656Z,80.10
2017-12-05T22:17:44.226Z,79.80
2017-12-05T22:20:12.043Z,79.70
2017-12-05T22:22:39.580Z,79.40
2017-12-05T22:25:07.145Z,79.70
2017-12-05T22:27:34.727Z,80.20
2017-12-05T22:30:02.311Z,80.20
2017-12-05T22:32:30.668Z,80.20
2017-12-05T22:34:58.227Z,80.20
2017-12-05T22:37:25.809Z,79.80
2017-12-05T22:39:54.149Z,79.80
2017-12-05T22:42:21.701Z,79.80
2017-12-05T22:44:49.251Z,79.50
2017-12-05T22:47:16.817Z,79.40
2017-12-05T22:49:45.127Z,79.40
2017-12-05T22:52:13.583Z,79.40
2017-12-05T22:54:41.212Z,79.10
2017-12-05T22:57:08.774Z,79.10
2017-12-05T22:59:36.309Z,80.00
2017-12-05T23:02:03.881Z,80.00
2017-12-05T23:04:31.449Z,80.20
2017-12-05T23:06:59.004Z,80.40
2017-12-05T23:09:26.571Z,80.40
2017-12-05T23:11:54.116Z,80.10
2017-12-05T23:14:21.656Z,79.50
2017-12-05T23:16:49.252Z,79.50
2017-12-05T23:19:16.810Z,79.10
2017-12-05T23:21:45.043Z,79.00
2017-12-05T23:24:12.616Z,78.60
2017-12-05T23:26:40.920Z,78.20
2017-12-05T23:29:08.470Z,78.30
2017-12-05T23:31:36.033Z,78.60
2017-12-05T23:34:03.567Z,78.70
2017-12-05T23:36:31.129Z,78.60
2017-12-05T23:38:58.724Z,78.70
2017-12-05T23:41:26.268Z,78.60
2017-12-05T23:43:53.807Z,78.70
2017-12-05T23:46:21.504Z,78.70
2017-12-05T23:48:49.043Z,78.90
2017-12-05T23:51:16.584Z,78.80
2017-12-05T23:53:44.159Z,78.80
2017-12-05T23:56:11.702Z,78.50
2017-12-05T23:58:39.231Z,78.80
